sensor_id;sensor_type;location;lat;lon;timestamp;P1;durP1;ratioP1;P2;durP2;ratioP2
55288;SDS011;41154;45.394;5.734;2023-01-29T00:02:23;21.90;;;9.73;;
55288;SDS011;41154;45.394;5.734;2023-01-29T00:07:47;21.73;;;10.95;;
55288;SDS011;41154;45.394;5.734;2023-01-29T00:10:18;19.52;;;11.15;;
55288;SDS011;41154;45.394;5.734;2023-01-29T00:12:44;20.95;;;10.32;;
55288;SDS011;41154;45.394;5.734;2023-01-29T00:15:10;16.40;;;10.07;;
55288;SDS011;41154;45.394;5.734;2023-01-29T00:20:47;21.02;;;9.32;;
55288;SDS011;41154;45.394;5.734;2023-01-29T00:25:58;19.95;;;10.02;;
55288;SDS011;41154;45.394;5.734;2023-01-29T00:28:25;13.50;;;9.32;;
55288;SDS011;41154;45.394;5.734;2023-01-29T00:33:17;17.52;;;9.32;;
55288;SDS011;41154;45.394;5.734;2023-01-29T00:35:44;20.13;;;9.98;;
55288;SDS011;41154;45.394;5.734;2023-01-29T00:38:10;22.20;;;10.88;;
55288;SDS011;41154;45.394;5.734;2023-01-29T00:40:36;25.27;;;12.82;;
55288;SDS011;41154;45.394;5.734;2023-01-29T00:43:22;21.52;;;10.10;;
55288;SDS011;41154;45.394;5.734;2023-01-29T01:03:00;24.50;;;12.15;;
55288;SDS011;41154;45.394;5.734;2023-01-29T01:08:48;17.88;;;9.63;;
55288;SDS011;41154;45.394;5.734;2023-01-29T01:11:32;17.38;;;9.68;;
55288;SDS011;41154;45.394;5.734;2023-01-29T01:13:58;21.02;;;10.88;;
55288;SDS011;41154;45.394;5.734;2023-01-29T01:16:32;26.25;;;12.13;;
55288;SDS011;41154;45.394;5.734;2023-01-29T01:18:58;21.70;;;10.95;;
55288;SDS011;41154;45.394;5.734;2023-01-29T01:21:24;21.10;;;11.35;;
55288;SDS011;41154;45.394;5.734;2023-01-29T01:26:52;21.30;;;10.45;;
55288;SDS011;41154;45.394;5.734;2023-01-29T01:29:18;16.58;;;10.25;;
55288;SDS011;41154;45.394;5.734;2023-01-29T01:31:44;24.92;;;13.38;;
55288;SDS011;41154;45.394;5.734;2023-01-29T01:36:51;28.40;;;12.43;;
55288;SDS011;41154;45.394;5.734;2023-01-29T01:39:21;23.40;;;12.45;;
55288;SDS011;41154;45.394;5.734;2023-01-29T01:41:48;29.50;;;14.18;;
55288;SDS011;41154;45.394;5.734;2023-01-29T01:47:27;29.55;;;10.88;;
55288;SDS011;41154;45.394;5.734;2023-01-29T01:49:59;23.40;;;10.45;;
55288;SDS011;41154;45.394;5.734;2023-01-29T01:52:31;29.25;;;11.55;;
55288;SDS011;41154;45.394;5.734;2023-01-29T01:54:59;21.10;;;9.82;;
55288;SDS011;41154;45.394;5.734;2023-01-29T01:57:26;23.40;;;13.00;;
55288;SDS011;41154;45.394;5.734;2023-01-29T01:59:56;22.30;;;10.82;;
55288;SDS011;41154;45.394;5.734;2023-01-29T02:02:38;27.50;;;11.93;;
55288;SDS011;41154;45.394;5.734;2023-01-29T02:05:25;25.20;;;12.00;;
55288;SDS011;41154;45.394;5.734;2023-01-29T02:08:12;23.45;;;11.63;;
55288;SDS011;41154;45.394;5.734;2023-01-29T02:10:57;19.75;;;10.85;;
55288;SDS011;41154;45.394;5.734;2023-01-29T02:13:23;20.13;;;11.18;;
55288;SDS011;41154;45.394;5.734;2023-01-29T02:15:48;21.60;;;11.10;;
55288;SDS011;41154;45.394;5.734;2023-01-29T02:18:15;26.73;;;12.02;;
55288;SDS011;41154;45.394;5.734;2023-01-29T02:21:05;25.65;;;11.48;;
55288;SDS011;41154;45.394;5.734;2023-01-29T02:26:37;21.38;;;10.35;;
55288;SDS011;41154;45.394;5.734;2023-01-29T02:29:22;26.00;;;11.75;;
55288;SDS011;41154;45.394;5.734;2023-01-29T02:32:14;23.50;;;10.07;;
55288;SDS011;41154;45.394;5.734;2023-01-29T02:34:57;26.35;;;12.55;;
55288;SDS011;41154;45.394;5.734;2023-01-29T02:37:56;18.40;;;8.50;;
55288;SDS011;41154;45.394;5.734;2023-01-29T02:40:43;23.05;;;11.10;;
55288;SDS011;41154;45.394;5.734;2023-01-29T02:51:36;16.58;;;8.85;;
55288;SDS011;41154;45.394;5.734;2023-01-29T02:56:47;18.85;;;9.07;;
55288;SDS011;41154;45.394;5.734;2023-01-29T02:59:24;19.60;;;9.50;;
55288;SDS011;41154;45.394;5.734;2023-01-29T03:02:01;20.58;;;9.90;;
55288;SDS011;41154;45.394;5.734;2023-01-29T03:04:32;18.05;;;9.32;;
55288;SDS011;41154;45.394;5.734;2023-01-29T03:07:08;25.75;;;8.85;;
55288;SDS011;41154;45.394;5.734;2023-01-29T03:09:58;23.58;;;11.23;;
55288;SDS011;41154;45.394;5.734;2023-01-29T03:12:27;18.90;;;9.95;;
55288;SDS011;41154;45.394;5.734;2023-01-29T03:20:33;20.37;;;8.97;;
55288;SDS011;41154;45.394;5.734;2023-01-29T03:23:07;16.92;;;9.65;;
55288;SDS011;41154;45.394;5.734;2023-01-29T03:25:39;24.08;;;12.32;;
55288;SDS011;41154;45.394;5.734;2023-01-29T03:28:29;19.88;;;11.90;;
55288;SDS011;41154;45.394;5.734;2023-01-29T03:31:16;23.60;;;11.07;;
55288;SDS011;41154;45.394;5.734;2023-01-29T03:34:05;18.85;;;11.10;;
55288;SDS011;41154;45.394;5.734;2023-01-29T03:36:43;19.30;;;9.68;;
55288;SDS011;41154;45.394;5.734;2023-01-29T03:39:21;18.88;;;10.20;;
55288;SDS011;41154;45.394;5.734;2023-01-29T03:56:06;15.25;;;9.65;;
55288;SDS011;41154;45.394;5.734;2023-01-29T03:58:46;22.48;;;9.43;;
55288;SDS011;41154;45.394;5.734;2023-01-29T04:01:39;21.23;;;9.90;;
55288;SDS011;41154;45.394;5.734;2023-01-29T04:04:15;17.02;;;9.23;;
55288;SDS011;41154;45.394;5.734;2023-01-29T04:06:47;19.52;;;10.43;;
55288;SDS011;41154;45.394;5.734;2023-01-29T04:09:16;20.05;;;9.73;;
55288;SDS011;41154;45.394;5.734;2023-01-29T04:11:47;23.27;;;10.55;;
55288;SDS011;41154;45.394;5.734;2023-01-29T04:14:19;24.52;;;10.57;;
55288;SDS011;41154;45.394;5.734;2023-01-29T04:16:47;27.92;;;11.73;;
55288;SDS011;41154;45.394;5.734;2023-01-29T04:19:28;16.65;;;9.10;;
55288;SDS011;41154;45.394;5.734;2023-01-29T04:22:01;24.83;;;12.32;;
55288;SDS011;41154;45.394;5.734;2023-01-29T04:24:31;18.85;;;9.57;;
55288;SDS011;41154;45.394;5.734;2023-01-29T04:27:16;17.50;;;9.13;;
55288;SDS011;41154;45.394;5.734;2023-01-29T04:35:41;19.15;;;9.45;;
55288;SDS011;41154;45.394;5.734;2023-01-29T04:41:23;16.08;;;9.32;;
55288;SDS011;41154;45.394;5.734;2023-01-29T04:47:04;22.58;;;9.70;;
55288;SDS011;41154;45.394;5.734;2023-01-29T04:52:22;20.40;;;10.45;;
55288;SDS011;41154;45.394;5.734;2023-01-29T04:57:39;22.42;;;9.77;;
55288;SDS011;41154;45.394;5.734;2023-01-29T05:02:37;23.15;;;8.70;;
55288;SDS011;41154;45.394;5.734;2023-01-29T05:05:04;16.40;;;9.73;;
55288;SDS011;41154;45.394;5.734;2023-01-29T05:07:33;32.13;;;13.05;;
55288;SDS011;41154;45.394;5.734;2023-01-29T05:10:03;19.42;;;10.70;;
55288;SDS011;41154;45.394;5.734;2023-01-29T05:12:31;25.33;;;10.68;;
55288;SDS011;41154;45.394;5.734;2023-01-29T05:14:59;20.63;;;11.57;;
55288;SDS011;41154;45.394;5.734;2023-01-29T05:17:27;27.98;;;11.02;;
55288;SDS011;41154;45.394;5.734;2023-01-29T05:19:54;24.98;;;12.25;;
55288;SDS011;41154;45.394;5.734;2023-01-29T05:22:21;22.52;;;11.13;;
55288;SDS011;41154;45.394;5.734;2023-01-29T05:24:48;27.30;;;12.18;;
55288;SDS011;41154;45.394;5.734;2023-01-29T05:27:19;22.33;;;9.63;;
55288;SDS011;41154;45.394;5.734;2023-01-29T05:30:07;19.02;;;9.35;;
55288;SDS011;41154;45.394;5.734;2023-01-29T05:32:34;26.75;;;10.63;;
55288;SDS011;41154;45.394;5.734;2023-01-29T05:35:00;20.58;;;10.05;;
55288;SDS011;41154;45.394;5.734;2023-01-29T05:37:25;24.58;;;11.02;;
55288;SDS011;41154;45.394;5.734;2023-01-29T05:39:51;25.60;;;11.63;;
55288;SDS011;41154;45.394;5.734;2023-01-29T05:42:17;30.73;;;10.80;;
55288;SDS011;41154;45.394;5.734;2023-01-29T05:44:42;25.63;;;10.82;;
55288;SDS011;41154;45.394;5.734;2023-01-29T05:47:08;16.27;;;9.10;;
55288;SDS011;41154;45.394;5.734;2023-01-29T05:49:34;18.70;;;9.18;;
55288;SDS011;41154;45.394;5.734;2023-01-29T05:51:59;26.10;;;11.07;;
55288;SDS011;41154;45.394;5.734;2023-01-29T05:54:25;20.42;;;9.40;;
55288;SDS011;41154;45.394;5.734;2023-01-29T05:56:51;21.13;;;8.98;;
55288;SDS011;41154;45.394;5.734;2023-01-29T05:59:16;19.55;;;9.55;;
55288;SDS011;41154;45.394;5.734;2023-01-29T06:01:42;22.65;;;10.80;;
55288;SDS011;41154;45.394;5.734;2023-01-29T06:04:08;20.92;;;10.65;;
55288;SDS011;41154;45.394;5.734;2023-01-29T06:06:34;26.33;;;11.88;;
55288;SDS011;41154;45.394;5.734;2023-01-29T06:08:59;18.92;;;9.20;;
55288;SDS011;41154;45.394;5.734;2023-01-29T06:11:25;17.92;;;9.38;;
55288;SDS011;41154;45.394;5.734;2023-01-29T06:13:51;21.50;;;10.00;;
55288;SDS011;41154;45.394;5.734;2023-01-29T06:16:16;20.63;;;10.70;;
55288;SDS011;41154;45.394;5.734;2023-01-29T06:18:42;18.38;;;9.95;;
55288;SDS011;41154;45.394;5.734;2023-01-29T06:21:09;20.35;;;8.70;;
55288;SDS011;41154;45.394;5.734;2023-01-29T06:23:36;21.38;;;9.80;;
55288;SDS011;41154;45.394;5.734;2023-01-29T06:26:03;22.85;;;9.43;;
55288;SDS011;41154;45.394;5.734;2023-01-29T06:28:34;21.73;;;10.38;;
55288;SDS011;41154;45.394;5.734;2023-01-29T06:31:00;16.77;;;10.07;;
55288;SDS011;41154;45.394;5.734;2023-01-29T06:33:28;19.00;;;10.35;;
55288;SDS011;41154;45.394;5.734;2023-01-29T06:35:55;20.52;;;9.95;;
55288;SDS011;41154;45.394;5.734;2023-01-29T06:38:25;24.88;;;10.07;;
55288;SDS011;41154;45.394;5.734;2023-01-29T06:40:51;18.98;;;10.38;;
55288;SDS011;41154;45.394;5.734;2023-01-29T06:43:18;22.00;;;10.48;;
55288;SDS011;41154;45.394;5.734;2023-01-29T06:45:51;19.42;;;10.30;;
55288;SDS011;41154;45.394;5.734;2023-01-29T06:48:18;22.73;;;11.47;;
55288;SDS011;41154;45.394;5.734;2023-01-29T06:50:45;22.10;;;10.95;;
55288;SDS011;41154;45.394;5.734;2023-01-29T06:53:12;21.70;;;11.30;;
55288;SDS011;41154;45.394;5.734;2023-01-29T06:55:37;25.63;;;11.55;;
55288;SDS011;41154;45.394;5.734;2023-01-29T06:58:06;19.20;;;9.63;;
55288;SDS011;41154;45.394;5.734;2023-01-29T07:00:34;18.25;;;10.27;;
55288;SDS011;41154;45.394;5.734;2023-01-29T07:03:00;18.50;;;9.73;;
55288;SDS011;41154;45.394;5.734;2023-01-29T07:05:26;21.35;;;9.95;;
55288;SDS011;41154;45.394;5.734;2023-01-29T07:07:52;19.10;;;10.70;;
55288;SDS011;41154;45.394;5.734;2023-01-29T07:10:18;20.80;;;9.80;;
55288;SDS011;41154;45.394;5.734;2023-01-29T07:12:44;25.05;;;10.77;;
55288;SDS011;41154;45.394;5.734;2023-01-29T07:15:10;18.10;;;9.07;;
55288;SDS011;41154;45.394;5.734;2023-01-29T07:17:37;20.90;;;10.85;;
55288;SDS011;41154;45.394;5.734;2023-01-29T07:20:03;20.25;;;9.13;;
55288;SDS011;41154;45.394;5.734;2023-01-29T07:22:30;20.02;;;10.15;;
55288;SDS011;41154;45.394;5.734;2023-01-29T07:24:56;21.77;;;9.68;;
55288;SDS011;41154;45.394;5.734;2023-01-29T07:27:22;15.35;;;9.68;;
55288;SDS011;41154;45.394;5.734;2023-01-29T07:29:48;18.40;;;10.35;;
55288;SDS011;41154;45.394;5.734;2023-01-29T07:32:14;29.40;;;11.25;;
55288;SDS011;41154;45.394;5.734;2023-01-29T07:34:39;24.73;;;11.00;;
55288;SDS011;41154;45.394;5.734;2023-01-29T07:37:05;18.20;;;10.40;;
55288;SDS011;41154;45.394;5.734;2023-01-29T07:39:31;23.23;;;10.23;;
55288;SDS011;41154;45.394;5.734;2023-01-29T07:41:57;20.58;;;9.48;;
55288;SDS011;41154;45.394;5.734;2023-01-29T07:44:25;21.88;;;10.20;;
55288;SDS011;41154;45.394;5.734;2023-01-29T07:46:51;17.17;;;8.90;;
55288;SDS011;41154;45.394;5.734;2023-01-29T07:49:16;21.30;;;9.65;;
55288;SDS011;41154;45.394;5.734;2023-01-29T07:51:42;21.15;;;10.48;;
55288;SDS011;41154;45.394;5.734;2023-01-29T07:54:08;17.95;;;9.68;;
55288;SDS011;41154;45.394;5.734;2023-01-29T07:56:33;25.15;;;12.82;;
55288;SDS011;41154;45.394;5.734;2023-01-29T07:58:59;21.48;;;11.68;;
55288;SDS011;41154;45.394;5.734;2023-01-29T08:01:25;19.75;;;10.80;;
55288;SDS011;41154;45.394;5.734;2023-01-29T08:03:50;29.67;;;13.52;;
55288;SDS011;41154;45.394;5.734;2023-01-29T08:06:16;27.70;;;12.77;;
55288;SDS011;41154;45.394;5.734;2023-01-29T08:08:42;20.85;;;11.25;;
55288;SDS011;41154;45.394;5.734;2023-01-29T08:11:07;19.08;;;10.40;;
55288;SDS011;41154;45.394;5.734;2023-01-29T08:13:33;21.95;;;10.65;;
55288;SDS011;41154;45.394;5.734;2023-01-29T08:16:02;30.40;;;11.38;;
55288;SDS011;41154;45.394;5.734;2023-01-29T08:18:29;19.42;;;11.20;;
55288;SDS011;41154;45.394;5.734;2023-01-29T08:20:59;22.02;;;11.65;;
55288;SDS011;41154;45.394;5.734;2023-01-29T08:23:25;27.00;;;11.23;;
55288;SDS011;41154;45.394;5.734;2023-01-29T08:25:51;25.48;;;11.38;;
55288;SDS011;41154;45.394;5.734;2023-01-29T08:28:17;23.10;;;12.38;;
55288;SDS011;41154;45.394;5.734;2023-01-29T08:30:42;25.02;;;11.80;;
55288;SDS011;41154;45.394;5.734;2023-01-29T08:33:08;29.13;;;12.02;;
55288;SDS011;41154;45.394;5.734;2023-01-29T08:35:34;28.75;;;13.98;;
55288;SDS011;41154;45.394;5.734;2023-01-29T08:38:01;15.07;;;9.25;;
55288;SDS011;41154;45.394;5.734;2023-01-29T08:40:29;27.15;;;12.35;;
55288;SDS011;41154;45.394;5.734;2023-01-29T08:42:57;27.75;;;11.25;;
55288;SDS011;41154;45.394;5.734;2023-01-29T08:45:23;20.70;;;11.52;;
55288;SDS011;41154;45.394;5.734;2023-01-29T08:47:49;21.45;;;10.85;;
55288;SDS011;41154;45.394;5.734;2023-01-29T08:50:15;20.90;;;10.90;;
55288;SDS011;41154;45.394;5.734;2023-01-29T08:52:41;19.52;;;9.88;;
55288;SDS011;41154;45.394;5.734;2023-01-29T08:55:08;19.73;;;10.07;;
55288;SDS011;41154;45.394;5.734;2023-01-29T08:57:34;21.80;;;11.95;;
55288;SDS011;41154;45.394;5.734;2023-01-29T09:00:00;22.73;;;11.27;;
55288;SDS011;41154;45.394;5.734;2023-01-29T09:02:26;27.02;;;11.07;;
55288;SDS011;41154;45.394;5.734;2023-01-29T09:04:52;21.58;;;11.75;;
55288;SDS011;41154;45.394;5.734;2023-01-29T09:07:18;20.50;;;11.30;;
55288;SDS011;41154;45.394;5.734;2023-01-29T09:09:45;17.83;;;9.88;;
55288;SDS011;41154;45.394;5.734;2023-01-29T09:12:11;20.45;;;10.90;;
55288;SDS011;41154;45.394;5.734;2023-01-29T09:14:37;22.60;;;12.05;;
55288;SDS011;41154;45.394;5.734;2023-01-29T09:17:03;21.10;;;10.32;;
55288;SDS011;41154;45.394;5.734;2023-01-29T09:19:29;21.20;;;11.15;;
55288;SDS011;41154;45.394;5.734;2023-01-29T09:21:54;21.85;;;10.20;;
55288;SDS011;41154;45.394;5.734;2023-01-29T09:24:20;17.88;;;9.45;;
55288;SDS011;41154;45.394;5.734;2023-01-29T09:26:46;22.48;;;11.85;;
55288;SDS011;41154;45.394;5.734;2023-01-29T09:29:11;17.80;;;9.40;;
55288;SDS011;41154;45.394;5.734;2023-01-29T09:31:37;18.60;;;10.40;;
55288;SDS011;41154;45.394;5.734;2023-01-29T09:34:03;19.27;;;9.90;;
55288;SDS011;41154;45.394;5.734;2023-01-29T09:36:28;16.95;;;9.63;;
55288;SDS011;41154;45.394;5.734;2023-01-29T09:38:55;18.90;;;9.07;;
55288;SDS011;41154;45.394;5.734;2023-01-29T09:41:55;21.73;;;10.40;;
55288;SDS011;41154;45.394;5.734;2023-01-29T09:47:13;19.33;;;9.25;;
55288;SDS011;41154;45.394;5.734;2023-01-29T09:49:45;19.85;;;10.27;;
55288;SDS011;41154;45.394;5.734;2023-01-29T09:52:17;20.73;;;10.02;;
55288;SDS011;41154;45.394;5.734;2023-01-29T09:55:00;15.57;;;8.35;;
55288;SDS011;41154;45.394;5.734;2023-01-29T09:57:45;15.95;;;7.85;;
55288;SDS011;41154;45.394;5.734;2023-01-29T10:00:14;19.20;;;8.43;;
55288;SDS011;41154;45.394;5.734;2023-01-29T10:05:34;15.93;;;8.57;;
55288;SDS011;41154;45.394;5.734;2023-01-29T10:11:11;17.33;;;8.90;;
55288;SDS011;41154;45.394;5.734;2023-01-29T10:16:53;15.57;;;7.65;;
55288;SDS011;41154;45.394;5.734;2023-01-29T10:25:04;18.02;;;9.52;;
55288;SDS011;41154;45.394;5.734;2023-01-29T10:27:35;21.98;;;10.45;;
55288;SDS011;41154;45.394;5.734;2023-01-29T10:30:07;17.67;;;8.52;;
55288;SDS011;41154;45.394;5.734;2023-01-29T10:32:45;18.35;;;10.52;;
55288;SDS011;41154;45.394;5.734;2023-01-29T10:35:16;24.60;;;12.52;;
55288;SDS011;41154;45.394;5.734;2023-01-29T10:37:46;13.85;;;7.43;;
55288;SDS011;41154;45.394;5.734;2023-01-29T10:43:07;20.45;;;9.40;;
55288;SDS011;41154;45.394;5.734;2023-01-29T10:45:42;13.73;;;7.53;;
55288;SDS011;41154;45.394;5.734;2023-01-29T10:50:54;16.15;;;7.78;;
55288;SDS011;41154;45.394;5.734;2023-01-29T10:53:42;10.90;;;5.25;;
55288;SDS011;41154;45.394;5.734;2023-01-29T10:56:13;9.50;;;5.32;;
55288;SDS011;41154;45.394;5.734;2023-01-29T10:58:50;17.33;;;7.43;;
55288;SDS011;41154;45.394;5.734;2023-01-29T11:04:11;11.93;;;5.55;;
55288;SDS011;41154;45.394;5.734;2023-01-29T11:06:38;14.10;;;6.75;;
55288;SDS011;41154;45.394;5.734;2023-01-29T11:12:08;13.85;;;6.22;;
55288;SDS011;41154;45.394;5.734;2023-01-29T11:17:13;14.65;;;6.97;;
55288;SDS011;41154;45.394;5.734;2023-01-29T11:19:45;11.82;;;6.63;;
55288;SDS011;41154;45.394;5.734;2023-01-29T11:22:13;14.18;;;7.13;;
55288;SDS011;41154;45.394;5.734;2023-01-29T11:24:41;9.00;;;5.70;;
55288;SDS011;41154;45.394;5.734;2023-01-29T11:27:23;16.15;;;7.18;;
55288;SDS011;41154;45.394;5.734;2023-01-29T11:29:53;9.88;;;5.25;;
55288;SDS011;41154;45.394;5.734;2023-01-29T11:35:46;13.45;;;6.35;;
55288;SDS011;41154;45.394;5.734;2023-01-29T11:37:42;17.40;;;8.45;;
55288;SDS011;41154;45.394;5.734;2023-01-29T11:42:47;14.25;;;6.68;;
55288;SDS011;41154;45.394;5.734;2023-01-29T11:45:26;24.02;;;12.40;;
55288;SDS011;41154;45.394;5.734;2023-01-29T11:47:56;19.65;;;9.10;;
55288;SDS011;41154;45.394;5.734;2023-01-29T11:50:23;14.45;;;7.07;;
55288;SDS011;41154;45.394;5.734;2023-01-29T11:52:52;19.77;;;9.55;;
55288;SDS011;41154;45.394;5.734;2023-01-29T11:55:22;13.00;;;6.70;;
55288;SDS011;41154;45.394;5.734;2023-01-29T12:00:53;17.23;;;8.13;;
55288;SDS011;41154;45.394;5.734;2023-01-29T12:03:29;10.70;;;5.95;;
55288;SDS011;41154;45.394;5.734;2023-01-29T12:06:04;19.38;;;10.38;;
55288;SDS011;41154;45.394;5.734;2023-01-29T12:08:38;15.77;;;7.57;;
55288;SDS011;41154;45.394;5.734;2023-01-29T12:11:09;19.25;;;7.70;;
55288;SDS011;41154;45.394;5.734;2023-01-29T12:13:41;11.18;;;6.40;;
55288;SDS011;41154;45.394;5.734;2023-01-29T12:18:39;15.73;;;8.30;;
55288;SDS011;41154;45.394;5.734;2023-01-29T12:21:13;14.77;;;6.90;;
55288;SDS011;41154;45.394;5.734;2023-01-29T12:23:56;10.95;;;6.05;;
55288;SDS011;41154;45.394;5.734;2023-01-29T12:26:47;12.57;;;6.50;;
55288;SDS011;41154;45.394;5.734;2023-01-29T12:39:39;13.38;;;5.88;;
55288;SDS011;41154;45.394;5.734;2023-01-29T12:42:38;10.43;;;6.07;;
55288;SDS011;41154;45.394;5.734;2023-01-29T12:44:58;14.65;;;6.78;;
55288;SDS011;41154;45.394;5.734;2023-01-29T12:47:29;15.48;;;8.68;;
55288;SDS011;41154;45.394;5.734;2023-01-29T12:50:18;17.77;;;6.55;;
55288;SDS011;41154;45.394;5.734;2023-01-29T12:55:18;12.18;;;5.95;;
55288;SDS011;41154;45.394;5.734;2023-01-29T12:57:56;9.43;;;5.88;;
55288;SDS011;41154;45.394;5.734;2023-01-29T13:00:28;13.90;;;7.13;;
55288;SDS011;41154;45.394;5.734;2023-01-29T13:02:59;14.07;;;6.28;;
55288;SDS011;41154;45.394;5.734;2023-01-29T13:05:37;12.90;;;6.88;;
55288;SDS011;41154;45.394;5.734;2023-01-29T13:08:33;14.57;;;7.57;;
55288;SDS011;41154;45.394;5.734;2023-01-29T13:11:03;12.45;;;7.03;;
55288;SDS011;41154;45.394;5.734;2023-01-29T13:16:19;14.27;;;6.53;;
55288;SDS011;41154;45.394;5.734;2023-01-29T13:19:01;15.93;;;7.18;;
55288;SDS011;41154;45.394;5.734;2023-01-29T13:21:30;11.77;;;6.72;;
55288;SDS011;41154;45.394;5.734;2023-01-29T13:24:04;17.75;;;8.05;;
55288;SDS011;41154;45.394;5.734;2023-01-29T13:26:40;17.02;;;8.50;;
55288;SDS011;41154;45.394;5.734;2023-01-29T13:29:23;12.95;;;6.38;;
55288;SDS011;41154;45.394;5.734;2023-01-29T13:31:51;16.17;;;7.80;;
55288;SDS011;41154;45.394;5.734;2023-01-29T13:34:27;12.52;;;6.95;;
55288;SDS011;41154;45.394;5.734;2023-01-29T13:36:57;15.65;;;7.32;;
55288;SDS011;41154;45.394;5.734;2023-01-29T13:39:26;14.57;;;6.70;;
55288;SDS011;41154;45.394;5.734;2023-01-29T13:41:55;13.63;;;7.13;;
55288;SDS011;41154;45.394;5.734;2023-01-29T13:46:57;12.60;;;6.13;;
55288;SDS011;41154;45.394;5.734;2023-01-29T13:49:39;15.00;;;6.78;;
55288;SDS011;41154;45.394;5.734;2023-01-29T13:52:15;16.10;;;8.65;;
55288;SDS011;41154;45.394;5.734;2023-01-29T13:54:57;12.35;;;6.95;;
55288;SDS011;41154;45.394;5.734;2023-01-29T14:13:40;15.23;;;7.22;;
55288;SDS011;41154;45.394;5.734;2023-01-29T14:21:46;13.13;;;7.07;;
55288;SDS011;41154;45.394;5.734;2023-01-29T14:24:18;16.45;;;7.57;;
55288;SDS011;41154;45.394;5.734;2023-01-29T14:26:53;17.35;;;8.30;;
55288;SDS011;41154;45.394;5.734;2023-01-29T14:29:29;13.65;;;7.40;;
55288;SDS011;41154;45.394;5.734;2023-01-29T14:37:01;13.60;;;7.53;;
55288;SDS011;41154;45.394;5.734;2023-01-29T14:39:47;16.85;;;8.15;;
55288;SDS011;41154;45.394;5.734;2023-01-29T14:44:59;18.13;;;8.23;;
55288;SDS011;41154;45.394;5.734;2023-01-29T14:49:59;12.02;;;6.65;;
55288;SDS011;41154;45.394;5.734;2023-01-29T14:52:29;13.07;;;6.88;;
55288;SDS011;41154;45.394;5.734;2023-01-29T14:55:03;14.23;;;7.55;;
55288;SDS011;41154;45.394;5.734;2023-01-29T14:57:33;17.45;;;7.80;;
55288;SDS011;41154;45.394;5.734;2023-01-29T15:00:02;20.48;;;7.63;;
55288;SDS011;41154;45.394;5.734;2023-01-29T15:02:43;15.38;;;7.43;;
55288;SDS011;41154;45.394;5.734;2023-01-29T15:05:10;13.50;;;6.72;;
55288;SDS011;41154;45.394;5.734;2023-01-29T15:10:41;18.92;;;9.02;;
55288;SDS011;41154;45.394;5.734;2023-01-29T15:16:30;13.68;;;7.32;;
55288;SDS011;41154;45.394;5.734;2023-01-29T15:18:43;14.45;;;6.93;;
55288;SDS011;41154;45.394;5.734;2023-01-29T15:21:17;16.98;;;7.53;;
55288;SDS011;41154;45.394;5.734;2023-01-29T15:23:44;15.48;;;7.15;;
55288;SDS011;41154;45.394;5.734;2023-01-29T15:26:20;10.82;;;6.95;;
55288;SDS011;41154;45.394;5.734;2023-01-29T15:28:57;15.70;;;6.63;;
55288;SDS011;41154;45.394;5.734;2023-01-29T15:31:24;16.27;;;6.38;;
55288;SDS011;41154;45.394;5.734;2023-01-29T15:33:50;17.17;;;7.00;;
55288;SDS011;41154;45.394;5.734;2023-01-29T15:36:23;10.55;;;5.55;;
55288;SDS011;41154;45.394;5.734;2023-01-29T15:41:36;13.95;;;6.55;;
55288;SDS011;41154;45.394;5.734;2023-01-29T15:44:02;12.52;;;6.60;;
55288;SDS011;41154;45.394;5.734;2023-01-29T15:46:37;14.48;;;5.80;;
55288;SDS011;41154;45.394;5.734;2023-01-29T15:49:08;17.20;;;6.13;;
55288;SDS011;41154;45.394;5.734;2023-01-29T15:51:40;16.90;;;9.02;;
55288;SDS011;41154;45.394;5.734;2023-01-29T15:54:11;13.27;;;6.80;;
55288;SDS011;41154;45.394;5.734;2023-01-29T15:56:41;11.30;;;6.25;;
55288;SDS011;41154;45.394;5.734;2023-01-29T15:59:15;17.88;;;7.22;;
55288;SDS011;41154;45.394;5.734;2023-01-29T16:01:44;14.18;;;7.13;;
55288;SDS011;41154;45.394;5.734;2023-01-29T16:04:13;20.80;;;7.97;;
55288;SDS011;41154;45.394;5.734;2023-01-29T16:06:52;11.73;;;5.70;;
55288;SDS011;41154;45.394;5.734;2023-01-29T16:09:24;21.75;;;8.88;;
55288;SDS011;41154;45.394;5.734;2023-01-29T16:11:52;15.95;;;6.57;;
55288;SDS011;41154;45.394;5.734;2023-01-29T16:14:22;17.15;;;7.75;;
55288;SDS011;41154;45.394;5.734;2023-01-29T16:16:50;13.18;;;5.40;;
55288;SDS011;41154;45.394;5.734;2023-01-29T16:19:20;24.45;;;7.47;;
55288;SDS011;41154;45.394;5.734;2023-01-29T16:22:12;12.75;;;6.72;;
55288;SDS011;41154;45.394;5.734;2023-01-29T16:24:38;11.38;;;6.90;;
55288;SDS011;41154;45.394;5.734;2023-01-29T16:27:09;14.20;;;6.05;;
55288;SDS011;41154;45.394;5.734;2023-01-29T16:29:38;12.00;;;6.90;;
55288;SDS011;41154;45.394;5.734;2023-01-29T16:32:07;12.73;;;7.25;;
55288;SDS011;41154;45.394;5.734;2023-01-29T16:34:43;13.10;;;6.20;;
55288;SDS011;41154;45.394;5.734;2023-01-29T16:37:18;12.38;;;5.65;;
55288;SDS011;41154;45.394;5.734;2023-01-29T16:39:56;10.88;;;6.60;;
55288;SDS011;41154;45.394;5.734;2023-01-29T16:42:28;15.55;;;7.15;;
55288;SDS011;41154;45.394;5.734;2023-01-29T16:45:01;13.57;;;6.28;;
55288;SDS011;41154;45.394;5.734;2023-01-29T16:47:37;11.77;;;5.20;;
55288;SDS011;41154;45.394;5.734;2023-01-29T16:53:11;8.95;;;4.70;;
55288;SDS011;41154;45.394;5.734;2023-01-29T16:55:47;11.00;;;6.25;;
55288;SDS011;41154;45.394;5.734;2023-01-29T16:58:18;11.77;;;6.05;;
55288;SDS011;41154;45.394;5.734;2023-01-29T17:00:47;11.43;;;6.05;;
55288;SDS011;41154;45.394;5.734;2023-01-29T17:03:24;13.77;;;6.90;;
55288;SDS011;41154;45.394;5.734;2023-01-29T17:05:54;12.90;;;5.32;;
55288;SDS011;41154;45.394;5.734;2023-01-29T17:08:24;15.00;;;7.00;;
55288;SDS011;41154;45.394;5.734;2023-01-29T17:11:02;12.75;;;6.78;;
55288;SDS011;41154;45.394;5.734;2023-01-29T17:13:39;13.75;;;5.97;;
55288;SDS011;41154;45.394;5.734;2023-01-29T17:16:24;12.80;;;6.65;;
55288;SDS011;41154;45.394;5.734;2023-01-29T17:18:52;9.65;;;4.82;;
55288;SDS011;41154;45.394;5.734;2023-01-29T17:21:20;14.48;;;6.78;;
55288;SDS011;41154;45.394;5.734;2023-01-29T17:23:46;16.17;;;7.60;;
55288;SDS011;41154;45.394;5.734;2023-01-29T17:26:16;15.05;;;6.45;;
55288;SDS011;41154;45.394;5.734;2023-01-29T17:28:49;11.00;;;5.75;;
55288;SDS011;41154;45.394;5.734;2023-01-29T17:31:19;11.45;;;7.00;;
55288;SDS011;41154;45.394;5.734;2023-01-29T17:33:46;16.60;;;7.68;;
55288;SDS011;41154;45.394;5.734;2023-01-29T17:36:13;16.45;;;7.40;;
55288;SDS011;41154;45.394;5.734;2023-01-29T17:38:42;8.63;;;4.18;;
55288;SDS011;41154;45.394;5.734;2023-01-29T17:41:24;19.17;;;8.40;;
55288;SDS011;41154;45.394;5.734;2023-01-29T17:43:53;15.13;;;7.60;;
55288;SDS011;41154;45.394;5.734;2023-01-29T17:46:19;18.60;;;8.18;;
55288;SDS011;41154;45.394;5.734;2023-01-29T17:48:48;18.60;;;7.30;;
55288;SDS011;41154;45.394;5.734;2023-01-29T17:51:16;16.00;;;6.70;;
55288;SDS011;41154;45.394;5.734;2023-01-29T17:53:46;13.52;;;7.03;;
55288;SDS011;41154;45.394;5.734;2023-01-29T17:56:19;22.45;;;8.65;;
55288;SDS011;41154;45.394;5.734;2023-01-29T17:58:52;17.95;;;8.85;;
55288;SDS011;41154;45.394;5.734;2023-01-29T18:01:18;29.05;;;10.40;;
55288;SDS011;41154;45.394;5.734;2023-01-29T18:03:44;17.58;;;7.90;;
55288;SDS011;41154;45.394;5.734;2023-01-29T18:06:10;20.40;;;9.30;;
55288;SDS011;41154;45.394;5.734;2023-01-29T18:08:49;16.08;;;7.57;;
55288;SDS011;41154;45.394;5.734;2023-01-29T18:11:14;16.42;;;9.10;;
55288;SDS011;41154;45.394;5.734;2023-01-29T18:13:40;19.35;;;9.30;;